Estación de La Unión Norte
Ultimos registro cada 15 minutos 94
| N° | Estación | Fecha / Hora | Temperatura | Humedad | Lluvia | Velocidad | Dirección | Radiación | Presion |
| 94 | La Unión Norte | 06-05-2026 23:15 | 7,2 | 94,6 | 0 | 0 | 171 | 0,6 | 1018,9 |
| 93 | La Unión Norte | 06-05-2026 23:00 | 6,9 | 94,6 | 0 | 0 | 171 | 0,6 | 1018,9 |
| 92 | La Unión Norte | 06-05-2026 22:45 | 6,9 | 94,3 | 0 | 0 | 171 | 0,6 | 1018,5 |
| 91 | La Unión Norte | 06-05-2026 22:30 | 6,9 | 94,2 | 0 | 0 | 171 | 0,6 | 1018,3 |
| 90 | La Unión Norte | 06-05-2026 22:15 | 6,6 | 93,9 | 0 | 0 | 171 | 0,6 | 1018,1 |
| 89 | La Unión Norte | 06-05-2026 22:00 | 6,3 | 93,6 | 0 | 0 | 171 | 0,6 | 1018 |
| 88 | La Unión Norte | 06-05-2026 21:45 | 6 | 93,2 | 0 | 0 | 171 | 0,6 | 1017,9 |
| 87 | La Unión Norte | 06-05-2026 21:30 | 5,9 | 92,5 | 0 | 0 | 171 | 0,6 | 1017,8 |
| 86 | La Unión Norte | 06-05-2026 21:15 | 6 | 91,8 | 0 | 0 | 171 | 0,6 | 1017,5 |
| 85 | La Unión Norte | 06-05-2026 21:00 | 6,2 | 90,8 | 0 | 0 | 171 | 0,6 | 1017,5 |
| 84 | La Unión Norte | 06-05-2026 20:45 | 6,8 | 89,9 | 0 | 0 | 171 | 0,6 | 1017,3 |
| 83 | La Unión Norte | 06-05-2026 20:30 | 7,2 | 88,6 | 0 | 0 | 171 | 0,6 | 1017 |
| 82 | La Unión Norte | 06-05-2026 20:15 | 7,6 | 87,1 | 0 | 0 | 171 | 0,6 | 1016,9 |
| 81 | La Unión Norte | 06-05-2026 20:00 | 8,3 | 85,9 | 0 | 0 | 171 | 0,6 | 1016,7 |
| 80 | La Unión Norte | 06-05-2026 19:45 | 8,7 | 86,1 | 0 | 0 | 171 | 0,6 | 1016,5 |
| 79 | La Unión Norte | 06-05-2026 19:30 | 9,1 | 85,8 | 0 | 0 | 171 | 0,6 | 1016,3 |
| 78 | La Unión Norte | 06-05-2026 19:15 | 9 | 86,7 | 0 | 0 | 199 | 0,6 | 1015,9 |
| 77 | La Unión Norte | 06-05-2026 19:00 | 9,2 | 86,3 | 0 | 0 | 201 | 0,6 | 1015,6 |
| 76 | La Unión Norte | 06-05-2026 18:45 | 9,5 | 86,2 | 0 | 0 | 201 | 0,6 | 1015,3 |
| 75 | La Unión Norte | 06-05-2026 18:30 | 10 | 84,8 | 0 | 0 | 201 | 0,6 | 1014,9 |
| 74 | La Unión Norte | 06-05-2026 18:15 | 10,2 | 83,3 | 0 | 0 | 202 | 0,6 | 1014,7 |
| 73 | La Unión Norte | 06-05-2026 18:00 | 10,6 | 81,9 | 0 | 0 | 202 | 5,6 | 1014,3 |
| 72 | La Unión Norte | 06-05-2026 17:45 | 11,2 | 80,4 | 0 | 0 | 201 | 16,9 | 1013,8 |
| 71 | La Unión Norte | 06-05-2026 17:30 | 11,6 | 80 | 0 | 0 | 198 | 41,9 | 1013,5 |
| 70 | La Unión Norte | 06-05-2026 17:15 | 11,9 | 79,6 | 0 | 0 | 206 | 85,6 | 1013,3 |
| 69 | La Unión Norte | 06-05-2026 17:00 | 12 | 77 | 0 | 0 | 201 | 55,6 | 1012,9 |
| 68 | La Unión Norte | 06-05-2026 16:45 | 12 | 75,6 | 0 | 0 | 192 | 50,6 | 1012,5 |
| 67 | La Unión Norte | 06-05-2026 16:30 | 12,5 | 74,8 | 0 | 0 | 184 | 55,6 | 1012,1 |
| 66 | La Unión Norte | 06-05-2026 16:15 | 12,5 | 74,7 | 0 | 0 | 188 | 48,1 | 1011,6 |
| 65 | La Unión Norte | 06-05-2026 16:00 | 12,6 | 75 | 0 | 0,5 | 190 | 73,1 | 1011,4 |
| 64 | La Unión Norte | 06-05-2026 15:45 | 13,3 | 75,8 | 0 | 0,5 | 187 | 89,4 | 1010,9 |
| 63 | La Unión Norte | 06-05-2026 15:30 | 14 | 78,8 | 0 | 0 | 181 | 226,9 | 1010,4 |
| 62 | La Unión Norte | 06-05-2026 15:15 | 13,4 | 81,3 | 0 | 0 | 192 | 209,4 | 1010,2 |
| 61 | La Unión Norte | 06-05-2026 15:00 | 12,5 | 81,9 | 0 | 0 | 188 | 166,9 | 1009,9 |
| 60 | La Unión Norte | 06-05-2026 14:45 | 12,5 | 82,3 | 0 | 0 | 195 | 191,9 | 1009,6 |
| 59 | La Unión Norte | 06-05-2026 14:30 | 12 | 83,3 | 0 | 0 | 188 | 139,4 | 1009,4 |
| 58 | La Unión Norte | 06-05-2026 14:15 | 11,7 | 83 | 0 | 0 | 185 | 84,4 | 1009,4 |
| 57 | La Unión Norte | 06-05-2026 14:00 | 11,7 | 82,4 | 0 | 0 | 187 | 111,9 | 1009,1 |
| 56 | La Unión Norte | 06-05-2026 13:45 | 11,7 | 81,2 | 0 | 0,5 | 187 | 115,6 | 1009,1 |
| 55 | La Unión Norte | 06-05-2026 13:30 | 12,1 | 81,8 | 0 | 0 | 190 | 226,9 | 1008,8 |
| 54 | La Unión Norte | 06-05-2026 13:15 | 11,5 | 84,2 | 0 | 0,5 | 190 | 179,4 | 1008,6 |
| 53 | La Unión Norte | 06-05-2026 13:00 | 11 | 85,6 | 0 | 0,5 | 191 | 128,1 | 1008,5 |
| 52 | La Unión Norte | 06-05-2026 12:45 | 11 | 86,3 | 0 | 0,5 | 187 | 103,1 | 1008,4 |
| 51 | La Unión Norte | 06-05-2026 12:30 | 10,9 | 87,5 | 0 | 0,5 | 187 | 119,4 | 1008,3 |
| 50 | La Unión Norte | 06-05-2026 12:15 | 10,7 | 89,5 | 0 | 0,5 | 190 | 118,1 | 1008,3 |
| 49 | La Unión Norte | 06-05-2026 12:00 | 10,4 | 92,1 | 0 | 0 | 187 | 120,6 | 1008,3 |
| 48 | La Unión Norte | 06-05-2026 11:45 | 10 | 93,5 | 0 | 0,5 | 191 | 81,9 | 1008,2 |
| 47 | La Unión Norte | 06-05-2026 11:30 | 9,7 | 94,5 | 0 | 0,5 | 190 | 53,1 | 1007,9 |
| 46 | La Unión Norte | 06-05-2026 11:15 | 9,4 | 95,6 | 0 | 0,5 | 191 | 46,9 | 1007,8 |
| 45 | La Unión Norte | 06-05-2026 11:00 | 9,1 | 96,3 | 0 | 0 | 198 | 25,6 | 1007,4 |
| 44 | La Unión Norte | 06-05-2026 10:45 | 8,9 | 96,4 | 0 | 0 | 195 | 13,1 | 1007,1 |
| 43 | La Unión Norte | 06-05-2026 10:30 | 8,9 | 96,7 | 0 | 0 | 197 | 15,6 | 1006,9 |
| 42 | La Unión Norte | 06-05-2026 10:15 | 8,8 | 97,4 | 0 | 0,5 | 187 | 28,1 | 1006,5 |
| 41 | La Unión Norte | 06-05-2026 10:00 | 8,7 | 98,4 | 0 | 1 | 185 | 46,9 | 1006,3 |
| 40 | La Unión Norte | 06-05-2026 09:45 | 8,6 | 98,8 | 0 | 0,5 | 188 | 16,9 | 1006,3 |
| 39 | La Unión Norte | 06-05-2026 09:30 | 8,7 | 99,3 | 0 | 0,5 | 188 | 18,1 | 1006,2 |
| 38 | La Unión Norte | 06-05-2026 09:15 | 8,8 | 99,3 | 0 | 0 | 185 | 13,1 | 1005,9 |
| 37 | La Unión Norte | 06-05-2026 09:00 | 8,8 | 99,6 | 0,2 | 0 | 188 | 8,1 | 1005,7 |
| 36 | La Unión Norte | 06-05-2026 08:45 | 8,9 | 99,6 | 0,4 | 0 | 191 | 4,4 | 1005,5 |
| 35 | La Unión Norte | 06-05-2026 08:30 | 9 | 99,7 | 0,4 | 0 | 191 | 3,1 | 1005,2 |
| 34 | La Unión Norte | 06-05-2026 08:15 | 8,9 | 99,8 | 0,4 | 0 | 192 | 1,9 | 1005 |
| 33 | La Unión Norte | 06-05-2026 08:00 | 8,9 | 99,8 | 0,4 | 0 | 185 | 0,6 | 1004,7 |
| 32 | La Unión Norte | 06-05-2026 07:45 | 9 | 99,8 | 0,2 | 0 | 185 | 0,6 | 1004,6 |
| 31 | La Unión Norte | 06-05-2026 07:30 | 9,1 | 99,9 | 0 | 0 | 187 | 0,6 | 1004,6 |
| 30 | La Unión Norte | 06-05-2026 07:15 | 9,2 | 99,9 | 0,2 | 0 | 185 | 0,6 | 1004,5 |
| 29 | La Unión Norte | 06-05-2026 07:00 | 9,2 | 99,9 | 0 | 0 | 187 | 0,6 | 1004,2 |
| 28 | La Unión Norte | 06-05-2026 06:45 | 9,3 | 99,9 | 0,4 | 0 | 192 | 0,6 | 1004,2 |
| 27 | La Unión Norte | 06-05-2026 06:30 | 9,3 | 99,9 | 0,4 | 0 | 202 | 0,6 | 1004,2 |
| 26 | La Unión Norte | 06-05-2026 06:15 | 9,4 | 99,9 | 0,4 | 0 | 190 | 0,6 | 1004,1 |
| 25 | La Unión Norte | 06-05-2026 06:00 | 9,4 | 99,8 | 0,4 | 0 | 183 | 0,6 | 1003,9 |
| 24 | La Unión Norte | 06-05-2026 05:45 | 9,5 | 99,9 | 0,2 | 0 | 199 | 0,6 | 1003,8 |
| 23 | La Unión Norte | 06-05-2026 05:30 | 9,4 | 99,9 | 0,2 | 0 | 194 | 0,6 | 1004 |
| 22 | La Unión Norte | 06-05-2026 05:15 | 9,4 | 99,9 | 0 | 0 | 191 | 0,6 | 1003,5 |
| 21 | La Unión Norte | 06-05-2026 05:00 | 9,5 | 99,7 | 0,4 | 0 | 192 | 0,6 | 1003,6 |
| 20 | La Unión Norte | 06-05-2026 04:45 | 9,5 | 99,7 | 0,6 | 0 | 191 | 0,6 | 1003,4 |
| 19 | La Unión Norte | 06-05-2026 04:30 | 9,5 | 99,6 | 1,4 | 0 | 185 | 0,6 | 1003,4 |
| 18 | La Unión Norte | 06-05-2026 04:15 | 9,5 | 99,7 | 1 | 0 | 198 | 0,6 | 1003,6 |
| 17 | La Unión Norte | 06-05-2026 04:00 | 9,6 | 99,6 | 0,6 | 0 | 190 | 0,6 | 1003,7 |
| 16 | La Unión Norte | 06-05-2026 03:45 | 9,6 | 99,5 | 0,8 | 0 | 197 | 0,6 | 1004 |
| 15 | La Unión Norte | 06-05-2026 03:30 | 9,7 | 99,5 | 1,2 | 0 | 237 | 0,6 | 1004,1 |
| 14 | La Unión Norte | 06-05-2026 03:15 | 9,8 | 99,5 | 1,6 | 0 | 229 | 0,6 | 1003,8 |
| 13 | La Unión Norte | 06-05-2026 03:00 | 9,9 | 99,3 | 1,4 | 0 | 212 | 0,6 | 1004 |
| 12 | La Unión Norte | 06-05-2026 02:45 | 9,9 | 99,4 | 2 | 0 | 208 | 0,6 | 1004 |
| 11 | La Unión Norte | 06-05-2026 02:30 | 10 | 99,4 | 2,8 | 0 | 188 | 0,6 | 1003,8 |
| 10 | La Unión Norte | 06-05-2026 02:15 | 10,1 | 99,4 | 2,4 | 0 | 187 | 0,6 | 1003,8 |
| 9 | La Unión Norte | 06-05-2026 02:00 | 10,2 | 99,3 | 3 | 0 | 188 | 0,6 | 1003,7 |
| 8 | La Unión Norte | 06-05-2026 01:45 | 10,4 | 99,2 | 2,6 | 0,5 | 185 | 0,6 | 1003,7 |
| 7 | La Unión Norte | 06-05-2026 01:30 | 10,7 | 98,8 | 2,2 | 0,5 | 187 | 0,6 | 1003,5 |
| 6 | La Unión Norte | 06-05-2026 01:15 | 11,3 | 98,9 | 1,2 | 0 | 187 | 0,6 | 1003,4 |
| 5 | La Unión Norte | 06-05-2026 01:00 | 11,9 | 98,7 | 0,4 | 0 | 188 | 0,6 | 1003,3 |
| 4 | La Unión Norte | 06-05-2026 00:45 | 12,9 | 98,8 | 0,4 | 0 | 194 | 0,6 | 1003,4 |
| 3 | La Unión Norte | 06-05-2026 00:30 | 13,1 | 98,4 | 0,2 | 0 | 223 | 0,6 | 1003,3 |
| 2 | La Unión Norte | 06-05-2026 00:15 | 13,7 | 98,5 | 0 | 0 | 0 | 0,6 | 1003,1 |
| 1 | La Unión Norte | 06-05-2026 00:00 | 13,8 | 98,3 | 0 | 0 | 0 | 0,6 | 1003,2 |